Time;durP1;ratioP1;P1;durP2;ratioP2;P2;SDS_P1;SDS_P2;PMS_P1;PMS_P2;Temp;Humidity;BMP_temperature;BMP_pressure;BME280_temperature;BME280_humidity;BME280_pressure;Samples;Min_cycle;Max_cycle;Signal;HPM_P1;HPM_P2
2022/12/07 00:02:02;;;;;;;28.58;18.17;;;;;;;29.15;66.35;100807.47;5088205;27;67428;-36
2022/12/07 00:04:33;;;;;;;28.85;17.40;;;;;;;29.29;66.36;100830.69;5086149;27;69401;-35
2022/12/07 00:07:05;;;;;;;29.85;16.50;;;;;;;29.24;67.40;100821.56;5078433;27;66320;-37
2022/12/07 00:09:37;;;;;;;20.77;15.50;;;;;;;29.35;67.44;100843.34;5085344;27;71147;-39
2022/12/07 00:12:08;;;;;;;30.73;15.52;;;;;;;29.27;67.79;100827.38;5089737;27;65669;-38
2022/12/07 00:14:39;;;;;;;23.20;14.73;;;;;;;29.16;67.90;100817.22;5091000;27;70017;-34
2022/12/07 00:17:11;;;;;;;22.35;13.65;;;;;;;29.42;68.14;100856.03;5089530;27;66581;-34
2022/12/07 00:19:42;;;;;;;20.52;12.75;;;;;;;29.25;68.67;100834.84;5085859;27;69510;-35
2022/12/07 00:22:13;;;;;;;16.63;12.15;;;;;;;29.42;68.65;100869.53;5080459;27;65842;-35
2022/12/07 00:24:44;;;;;;;22.15;12.18;;;;;;;29.40;68.87;100857.06;5095499;27;70060;-36
2022/12/07 00:27:15;;;;;;;13.48;11.10;;;;;;;29.49;67.53;100862.25;5080861;27;66830;-36
2022/12/07 00:29:47;;;;;;;24.02;11.93;;;;;;;29.47;69.01;100858.94;5087449;27;69030;-36
2022/12/07 00:32:18;;;;;;;15.70;10.40;;;;;;;29.11;69.00;100795.41;5091115;27;67440;-35
2022/12/07 00:34:49;;;;;;;44.97;10.43;;;;;;;29.44;68.89;100857.47;5098098;27;69911;-34
2022/12/07 00:37:20;;;;;;;17.05;10.23;;;;;;;29.55;68.74;100872.22;5081523;27;66676;-35
2022/12/07 00:39:51;;;;;;;14.63;10.10;;;;;;;29.57;68.71;100875.53;5094503;27;69403;-34
2022/12/07 00:42:25;;;;;;;13.13;9.65;;;;;;;29.61;65.91;100882.16;5084540;27;43303;-35
2022/12/07 00:44:56;;;;;;;11.40;9.35;;;;;;;29.55;64.94;100872.22;5082296;27;69488;-35
2022/12/07 00:47:27;;;;;;;10.67;9.00;;;;;;;29.57;64.76;100873.66;5090283;27;65141;-34
2022/12/07 00:49:59;;;;;;;12.73;9.07;;;;;;;29.62;64.92;100883.84;5080731;27;70188;-36
2022/12/07 00:52:31;;;;;;;11.75;8.73;;;;;;;29.70;64.58;100885.50;5093335;27;66776;-35
2022/12/07 00:55:03;;;;;;;8.98;8.10;;;;;;;29.66;64.35;100895.91;5080830;27;69941;-33
2022/12/07 00:57:34;;;;;;;9.32;8.23;;;;;;;29.73;63.68;100899.44;5088977;27;65837;-36
2022/12/07 01:00:06;;;;;;;8.73;8.02;;;;;;;29.75;63.65;100896.53;5081301;27;70852;-34
2022/12/07 01:02:37;;;;;;;;;;;;;;;29.40;65.17;100894.91;5086004;27;66617;-34
2022/12/07 01:05:08;;;;;;;8.23;7.63;;;;;;;29.74;63.59;100897.56;5079006;27;70194;-34
2022/12/07 01:07:39;;;;;;;8.27;7.43;;;;;;;29.71;63.51;100882.59;5080230;27;65449;-36
2022/12/07 01:10:10;;;;;;;8.33;7.33;;;;;;;29.77;63.15;100892.56;5089584;27;70508;-35
2022/12/07 01:12:42;;;;;;;8.38;7.60;;;;;;;29.81;63.08;100909.19;5082624;27;66275;-35
2022/12/07 01:15:13;;;;;;;12.18;8.38;;;;;;;29.44;62.41;100835.03;5086533;27;69114;-34
2022/12/07 01:17:44;;;;;;;10.10;7.23;;;;;;;29.72;62.69;100886.97;5091129;27;66146;-35
2022/12/07 01:20:15;;;;;;;7.65;6.97;;;;;;;29.82;62.19;100903.56;5082952;27;68914;-36
2022/12/07 01:22:46;;;;;;;7.90;7.23;;;;;;;29.88;62.65;100909.19;5080518;27;66773;-36
2022/12/07 01:25:18;;;;;;;7.90;6.88;;;;;;;29.73;62.11;100885.94;5078809;27;69769;-35
2022/12/07 01:27:49;;;;;;;8.52;7.68;;;;;;;29.31;62.58;100820.53;5079560;27;65346;-35
2022/12/07 01:30:20;;;;;;;7.90;7.15;;;;;;;29.44;62.34;100840.44;5082955;27;68904;-35
2022/12/07 01:32:51;;;;;;;8.53;7.57;;;;;;;29.91;61.88;100919.56;5082875;27;65950;-35
2022/12/07 01:35:23;;;;;;;7.80;7.10;;;;;;;29.91;62.18;100920.41;5084328;27;69447;-34
2022/12/07 01:37:54;;;;;;;7.75;7.00;;;;;;;29.93;62.04;100918.31;5088567;27;65665;-34
2022/12/07 01:40:25;;;;;;;8.50;7.70;;;;;;;29.93;62.06;100912.09;5080689;27;69795;-34
2022/12/07 01:42:56;;;;;;;9.68;7.22;;;;;;;29.87;61.69;100902.94;5090196;27;66318;-34
2022/12/07 01:45:42;;;;;;;8.07;7.47;;;;;;;29.33;61.78;100815.72;5085342;27;69401;-36
2022/12/07 01:48:17;;;;;;;9.98;7.07;;;;;;;29.98;61.52;100920.41;5085424;27;66488;-34
2022/12/07 01:50:52;;;;;;;7.65;6.95;;;;;;;29.08;61.27;100752.59;5081363;27;70553;-35
2022/12/07 01:53:29;;;;;;;7.97;7.10;;;;;;;30.01;61.69;100903.72;5080964;27;66537;-35
2022/12/07 01:56:01;;;;;;;7.63;6.90;;;;;;;30.00;61.59;100899.34;5068705;27;70202;-34
2022/12/07 01:58:32;;;;;;;7.82;7.03;;;;;;;30.03;61.73;100901.63;5078892;27;66195;-34
2022/12/07 02:01:04;;;;;;;8.18;7.32;;;;;;;29.99;61.27;100895.00;5080350;27;70521;-35
2022/12/07 02:03:43;;;;;;;9.27;6.88;;;;;;;29.48;61.18;100818.19;5083034;27;65693;-35
2022/12/07 02:06:19;;;;;;;9.80;6.75;;;;;;;29.58;61.17;100831.25;5084218;27;70178;-34
2022/12/07 02:08:50;;;;;;;7.50;6.90;;;;;;;30.11;61.42;100909.50;5091333;27;66142;-34
2022/12/07 02:11:22;;;;;;;7.68;7.10;;;;;;;30.04;61.50;100906.00;5083792;27;71133;-35
2022/12/07 02:13:54;;;;;;;7.38;6.80;;;;;;;30.04;60.80;100908.72;5086166;27;65842;-36
2022/12/07 02:16:43;;;;;;;9.52;7.30;;;;;;;30.16;60.69;100923.22;5085920;27;69947;-34
2022/12/07 02:19:46;;;;;;;8.77;6.25;;;;;;;30.05;61.40;100921.19;5084620;27;66514;-34
2022/12/07 02:22:38;;;;;;;7.88;6.95;;;;;;;30.19;60.89;100920.09;5072386;27;70258;-35
2022/12/07 02:25:56;;;;;;;6.15;5.65;;;;;;;30.09;60.68;100919.72;5086864;27;65595;-34
2022/12/07 02:28:30;;;;;;;6.63;6.05;;;;;;;30.19;61.13;100920.09;5086699;27;69785;-34
2022/12/07 02:31:16;;;;;;;6.72;6.20;;;;;;;29.78;60.52;100840.16;5089086;27;66808;-34
2022/12/07 02:34:05;;;;;;;6.72;6.13;;;;;;;30.22;60.98;100919.69;5090868;27;70537;-34
2022/12/07 02:36:56;;;;;;;6.88;6.38;;;;;;;30.08;60.83;100887.47;5092761;27;66373;-36
2022/12/07 02:39:41;;;;;;;7.03;6.35;;;;;;;30.14;60.93;100882.00;5086248;27;69983;-36
2022/12/07 02:42:23;;;;;;;7.57;6.95;;;;;;;30.31;60.64;100919.44;5086760;27;66488;-34
2022/12/07 02:44:55;;;;;;;6.70;6.20;;;;;;;30.30;60.68;100918.59;5090758;27;69966;-34
2022/12/07 02:47:29;;;;;;;7.13;6.43;;;;;;;30.21;60.88;100901.75;5095693;27;66437;-35
2022/12/07 02:50:06;;;;;;;7.30;6.75;;;;;;;30.20;60.56;100886.59;5092084;27;70279;-34
2022/12/07 02:52:38;;;;;;;6.07;5.65;;;;;;;30.20;60.39;100880.31;5084936;27;66429;-34
2022/12/07 02:55:09;;;;;;;8.63;6.23;;;;;;;30.38;60.23;100904.84;5085358;27;70144;-34
2022/12/07 02:58:09;;;;;;;7.57;6.97;;;;;;;30.29;60.62;100900.72;5088704;27;66084;-35
2022/12/07 03:01:25;;;;;;;7.45;6.78;;;;;;;29.93;60.43;100826.38;5087880;27;70340;-34
2022/12/07 03:04:15;;;;;;;6.18;5.68;;;;;;;30.32;60.64;100894.88;5053344;27;65561;-36
2022/12/07 03:06:56;;;;;;;6.40;5.90;;;;;;;30.47;60.43;100902.69;5074231;27;68899;-34
2022/12/07 03:09:27;;;;;;;6.78;6.20;;;;;;;30.46;60.04;100895.63;5090981;27;65768;-34
2022/12/07 03:12:42;;;;;;;7.90;5.95;;;;;;;29.97;60.21;100826.75;5084803;27;70734;-34
2022/12/07 03:15:31;;;;;;;7.28;6.25;;;;;;;30.25;60.02;100835.38;5069139;27;65626;-34
2022/12/07 03:18:05;;;;;;;7.53;6.88;;;;;;;30.56;59.66;100889.72;5091291;27;70752;-36
2022/12/07 03:20:39;;;;;;;7.35;6.70;;;;;;;30.60;59.51;100889.09;5088723;27;66318;-36
2022/12/07 03:23:12;;;;;;;6.90;6.30;;;;;;;30.62;59.66;100884.28;5102344;27;69686;-34
2022/12/07 03:25:52;;;;;;;7.63;6.82;;;;;;;30.62;60.21;100905.94;5085555;27;66081;-34
2022/12/07 03:28:35;;;;;;;8.98;6.88;;;;;;;30.57;59.59;100876.00;5096138;27;70452;-34
2022/12/07 03:31:22;;;;;;;7.47;6.70;;;;;;;30.07;59.38;100789.25;5092199;27;66003;-35
2022/12/07 03:34:22;;;;;;;6.47;6.05;;;;;;;30.48;59.58;100864.59;5090740;27;70160;-34
2022/12/07 03:37:08;;;;;;;6.60;5.95;;;;;;;30.63;59.52;100879.69;5086885;27;65582;-36
2022/12/07 03:39:57;;;;;;;7.38;6.82;;;;;;;29.92;59.43;100764.38;5096985;27;69881;-35
2022/12/07 03:42:31;;;;;;;7.15;6.60;;;;;;;30.73;59.76;100888.19;5084987;27;66575;-34
2022/12/07 03:45:04;;;;;;;7.50;6.65;;;;;;;30.62;59.63;100862.63;5099869;27;69734;-34
2022/12/07 03:48:02;;;;;;;7.20;6.70;;;;;;;30.32;59.28;100812.88;5084380;27;66496;-35
2022/12/07 03:51:25;;;;;;;7.50;6.60;;;;;;;30.71;59.47;100861.31;5090440;27;70635;-35
2022/12/07 03:54:10;;;;;;;7.13;6.67;;;;;;;30.78;59.44;100865.84;5020087;28;66280;-34
2022/12/07 03:56:43;;;;;;;6.82;6.40;;;;;;;29.90;59.46;100712.41;5080202;27;70157;-34
2022/12/07 03:59:16;;;;;;;7.35;6.85;;;;;;;30.35;59.30;100763.72;5085931;27;66146;-34
2022/12/07 04:01:54;;;;;;;7.07;6.47;;;;;;;30.44;59.26;100767.81;5084581;27;70153;-34
2022/12/07 04:04:26;;;;;;;7.07;6.47;;;;;;;30.91;58.91;100835.97;5081558;27;66456;-34
2022/12/07 04:06:57;;;;;;;6.95;6.55;;;;;;;30.90;58.93;100827.03;5081275;27;70678;-34
2022/12/07 04:09:28;;;;;;;7.07;6.57;;;;;;;30.79;59.24;100802.53;5087275;27;65829;-34
2022/12/07 04:11:59;;;;;;;6.90;6.30;;;;;;;30.94;59.22;100822.00;5091414;27;69121;-36
2022/12/07 04:14:30;;;;;;;6.72;6.32;;;;;;;30.95;59.32;100807.38;5087205;27;65639;-35
2022/12/07 04:17:01;;;;;;;6.57;6.18;;;;;;;30.99;59.35;100802.38;5086137;27;69960;-35
2022/12/07 04:19:34;;;;;;;7.45;6.70;;;;;;;31.01;58.96;100808.38;5090254;27;66943;-37
2022/12/07 04:22:06;;;;;;;7.88;7.20;;;;;;;31.00;58.73;100787.75;5084191;27;70615;-35
2022/12/07 04:24:38;;;;;;;7.18;6.57;;;;;;;30.81;58.74;100754.41;5093999;27;66644;-36
2022/12/07 04:27:09;;;;;;;;;;;;;;;30.76;59.56;100786.69;5096512;27;69827;-34
2022/12/07 04:29:40;;;;;;;6.80;6.32;;;;;;;30.99;59.04;100773.41;5087788;27;66287;-35
2022/12/07 04:32:11;;;;;;;7.30;6.70;;;;;;;31.04;59.14;100781.69;5081559;27;69139;-34
2022/12/07 04:34:42;;;;;;;7.18;6.60;;;;;;;31.05;58.61;100774.38;5088721;27;67163;-35
2022/12/07 04:37:13;;;;;;;7.77;7.00;;;;;;;31.05;58.89;100761.66;5084850;27;70290;-34
2022/12/07 04:39:45;;;;;;;7.85;7.10;;;;;;;30.96;58.80;100751.34;5086711;27;66383;-35
2022/12/07 04:42:16;;;;;;;7.40;6.90;;;;;;;31.08;59.12;100768.50;5085124;27;69362;-34
2022/12/07 04:44:47;;;;;;;8.63;7.68;;;;;;;31.07;59.14;100758.75;5089509;27;66235;-36
2022/12/07 04:47:18;;;;;;;7.43;6.90;;;;;;;31.01;59.07;100752.34;5087345;27;70242;-36
2022/12/07 04:49:50;;;;;;;7.83;7.23;;;;;;;31.08;59.26;100758.50;5089196;27;65718;-35
2022/12/07 04:52:21;;;;;;;7.47;6.88;;;;;;;31.07;59.07;100756.84;5088016;27;68945;-36
2022/12/07 04:54:53;;;;;;;7.38;6.75;;;;;;;31.11;58.84;100751.81;5084430;27;65606;-35
2022/12/07 04:57:24;;;;;;;7.70;7.00;;;;;;;31.15;59.17;100744.91;5079932;27;70476;-36
2022/12/07 04:59:55;;;;;;;8.98;6.72;;;;;;;31.08;58.74;100725.16;5086421;27;66163;-34
2022/12/07 05:02:26;;;;;;;7.07;6.67;;;;;;;31.16;59.01;100725.69;5081786;27;69809;-36
2022/12/07 05:04:58;;;;;;;7.30;6.80;;;;;;;31.14;58.67;100724.25;5071224;27;66044;-34
2022/12/07 05:07:29;;;;;;;7.13;6.72;;;;;;;31.16;58.52;100717.56;5090347;27;70070;-36
2022/12/07 05:10:01;;;;;;;7.87;7.07;;;;;;;31.20;59.09;100719.81;5073883;27;65897;-34
2022/12/07 05:12:32;;;;;;;8.32;7.60;;;;;;;31.20;58.70;100709.78;5083155;27;69098;-36
2022/12/07 05:15:04;;;;;;;7.50;7.00;;;;;;;31.23;58.77;100711.22;5082509;27;66632;-35
2022/12/07 05:17:35;;;;;;;7.53;6.93;;;;;;;31.24;58.54;100704.78;5080849;27;69851;-41
2022/12/07 05:20:07;;;;;;;7.17;6.67;;;;;;;31.24;58.70;100702.06;5081539;27;66361;-35
2022/12/07 05:22:38;;;;;;;7.40;6.72;;;;;;;31.24;59.12;100693.94;5081714;27;69623;-34
2022/12/07 05:25:10;;;;;;;7.65;6.95;;;;;;;31.15;58.88;100677.97;5086240;27;65975;-34
2022/12/07 05:27:41;;;;;;;7.68;7.10;;;;;;;31.22;58.43;100688.72;5084922;27;70092;-34
2022/12/07 05:30:13;;;;;;;7.27;6.77;;;;;;;31.25;58.65;100695.56;5079257;27;66896;-35
2022/12/07 05:32:44;;;;;;;7.72;7.22;;;;;;;31.32;58.56;100699.03;5084954;27;70142;-35
2022/12/07 05:35:16;;;;;;;7.50;6.90;;;;;;;31.33;58.42;100695.25;5065900;27;66267;-35
2022/12/07 05:37:47;;;;;;;7.20;6.60;;;;;;;31.25;58.36;100671.19;5090325;27;69192;-35
2022/12/07 05:40:18;;;;;;;7.47;6.63;;;;;;;31.34;58.16;100675.22;5082244;27;66655;-38
2022/12/07 05:42:50;;;;;;;7.43;6.90;;;;;;;31.38;58.16;100671.06;5088245;27;69733;-35
2022/12/07 05:45:21;;;;;;;7.00;6.50;;;;;;;31.30;58.42;100652.38;5090183;27;65758;-35
2022/12/07 05:47:52;;;;;;;6.70;6.20;;;;;;;31.34;58.48;100648.13;5088146;27;69170;-34
2022/12/07 05:50:23;;;;;;;7.33;6.63;;;;;;;31.39;58.56;100656.44;5092470;27;66564;-36
2022/12/07 05:53:01;;;;;;;7.13;6.68;;;;;;;31.44;58.65;100653.88;5088766;27;70085;-34
2022/12/07 05:55:32;;;;;;;6.70;6.10;;;;;;;31.40;58.38;100647.28;5092644;27;66425;-35
2022/12/07 06:00:55;;;;;;;6.93;6.43;;;;;;;31.39;58.50;100626.63;5086823;27;66551;-35
2022/12/07 06:03:27;;;;;;;9.07;6.13;;;;;;;31.50;58.13;100639.38;5086390;27;69141;-36
2022/12/07 06:05:58;;;;;;;6.90;6.30;;;;;;;31.50;57.88;100641.28;5088890;27;66160;-34
2022/12/07 06:08:29;;;;;;;6.95;6.55;;;;;;;31.40;58.11;100617.44;5089835;27;69215;-35
2022/12/07 06:13:50;;;;;;;7.15;6.65;;;;;;;31.47;58.07;100620.88;5091731;27;69322;-35
2022/12/07 06:16:21;;;;;;;7.18;6.68;;;;;;;31.45;57.86;100604.00;5084227;27;67535;-35
2022/12/07 06:18:52;;;;;;;7.40;6.80;;;;;;;31.59;58.20;100619.03;5091430;27;69474;-34
2022/12/07 06:21:25;;;;;;;6.73;6.33;;;;;;;31.55;58.21;100612.41;5083030;27;65855;-35
2022/12/07 06:23:56;;;;;;;7.47;6.88;;;;;;;31.41;58.00;100581.16;5095180;27;70421;-34
2022/12/07 06:26:27;;;;;;;7.17;6.57;;;;;;;31.59;58.05;100605.50;5085811;27;65918;-34
2022/12/07 06:28:59;;;;;;;6.77;6.27;;;;;;;31.64;57.72;100601.25;5090196;27;69935;-35
2022/12/07 06:31:30;;;;;;;7.30;6.37;;;;;;;31.55;57.92;100579.88;5088725;27;66758;-35
2022/12/07 06:34:14;;;;;;;7.55;6.95;;;;;;;31.14;57.91;100518.34;5085370;27;70081;-34
2022/12/07 06:36:47;;;;;;;7.38;6.88;;;;;;;31.60;57.84;100579.19;5086518;27;66626;-35
2022/12/07 06:39:30;;;;;;;8.15;6.82;;;;;;;31.58;57.57;100562.31;5086335;27;69205;-35
2022/12/07 06:42:02;;;;;;;7.65;6.95;;;;;;;31.63;57.75;100564.34;5085180;27;66356;-35
2022/12/07 06:44:33;;;;;;;6.90;6.30;;;;;;;31.73;57.76;100567.28;5095252;27;70436;-34
2022/12/07 06:47:05;;;;;;;7.25;6.55;;;;;;;31.75;57.70;100573.31;5084522;27;65120;-35
2022/12/07 06:49:56;;;;;;;9.68;7.15;;;;;;;31.67;57.85;100555.50;5089168;27;70266;-36
2022/12/07 06:52:27;;;;;;;6.55;6.15;;;;;;;31.45;57.75;100505.59;5084410;27;66564;-34
2022/12/07 06:54:59;;;;;;;7.00;6.50;;;;;;;31.69;57.71;100536.28;5083482;27;70933;-34
2022/12/07 06:57:30;;;;;;;;;;;;;;;31.50;58.33;100557.25;5084181;27;66385;-35
2022/12/07 07:00:01;;;;;;;7.03;6.38;;;;;;;31.79;57.47;100553.66;5083023;27;71409;-34
2022/12/07 07:02:39;;;;;;;7.55;6.88;;;;;;;31.77;57.67;100544.09;5084247;27;66187;-34
2022/12/07 07:05:11;;;;;;;6.30;5.90;;;;;;;31.82;57.50;100542.31;5088526;27;69596;-34
2022/12/07 07:07:42;;;;;;;9.45;6.63;;;;;;;31.83;57.65;100543.97;5089465;27;66043;-35
2022/12/07 07:10:40;;;;;;;7.20;6.60;;;;;;;31.85;57.58;100541.03;5083867;27;70730;-35
2022/12/07 07:13:14;;;;;;;7.20;6.70;;;;;;;31.84;57.62;100542.06;5093735;27;66562;-35
2022/12/07 07:15:48;;;;;;;11.15;5.82;;;;;;;31.83;57.59;100549.38;5093427;27;70480;-35
2022/12/07 07:18:23;;;;;;;7.40;6.72;;;;;;;31.88;57.22;100545.16;5070771;27;65889;-34
2022/12/07 07:21:01;;;;;;;8.00;7.20;;;;;;;31.78;57.54;100518.59;5085846;27;69362;-35
2022/12/07 07:23:37;;;;;;;6.63;6.13;;;;;;;31.87;57.48;100527.22;5098262;27;66179;-35
2022/12/07 07:26:11;;;;;;;7.50;6.93;;;;;;;31.90;57.35;100527.59;5083351;27;70520;-35
2022/12/07 07:28:46;;;;;;;7.30;6.80;;;;;;;31.80;57.61;100511.06;5084542;27;66646;-34
2022/12/07 07:31:26;;;;;;;7.03;6.28;;;;;;;31.92;57.66;100522.75;5084551;27;70120;-32
2022/12/07 07:34:09;;;;;;;7.60;6.90;;;;;;;31.83;57.50;100506.00;5089329;27;65412;-33
2022/12/07 07:37:02;;;;;;;7.45;6.85;;;;;;;31.88;57.88;100520.75;5081800;27;70034;-33
2022/12/07 07:39:39;;;;;;;14.23;6.78;;;;;;;31.94;57.71;100517.94;5085804;27;66175;-32
2022/12/07 07:42:13;;;;;;;7.50;6.88;;;;;;;31.95;57.68;100513.34;5083892;27;70302;-31
2022/12/07 07:44:48;;;;;;;7.20;6.60;;;;;;;31.86;57.64;100499.28;5081348;27;65560;-31
2022/12/07 07:47:20;;;;;;;8.32;6.80;;;;;;;31.97;57.09;100509.31;5089302;27;68508;-32
2022/12/07 07:49:54;;;;;;;10.20;6.78;;;;;;;31.98;57.70;100511.00;5089558;27;65321;-32
2022/12/07 07:52:25;;;;;;;7.47;6.77;;;;;;;31.98;57.68;100519.13;5089886;27;72807;-31
2022/12/07 07:55:12;;;;;;;7.95;6.53;;;;;;;31.99;57.52;100498.25;5084393;27;65709;-32
2022/12/07 07:57:44;;;;;;;6.90;6.20;;;;;;;31.96;57.25;100490.59;5091843;27;69978;-32
2022/12/07 08:00:23;;;;;;;7.07;6.53;;;;;;;32.02;57.55;100504.03;5084391;27;66168;-33
2022/12/07 08:02:54;;;;;;;9.55;6.30;;;;;;;32.01;57.57;100505.09;5086516;27;69904;-34
2022/12/07 08:05:25;;;;;;;6.53;5.93;;;;;;;31.92;57.67;100498.34;5087749;27;66467;-32
2022/12/07 08:07:58;;;;;;;6.70;6.00;;;;;;;31.59;57.42;100440.09;5084094;27;70439;-32
2022/12/07 08:10:31;;;;;;;6.95;6.20;;;;;;;32.00;57.10;100489.84;5085422;27;65890;-33
2022/12/07 08:13:13;;;;;;;8.20;6.00;;;;;;;32.05;57.64;100500.00;5083285;27;70117;-33
2022/12/07 08:15:48;;;;;;;7.28;6.47;;;;;;;31.90;57.47;100476.06;5074768;27;66278;-32
2022/12/07 08:18:19;;;;;;;7.22;6.25;;;;;;;32.06;57.47;100498.94;5084147;27;69612;-35
2022/12/07 08:20:50;;;;;;;;;;;;;;;31.75;58.21;100492.78;5084178;27;65819;-32
2022/12/07 08:23:21;;;;;;;6.80;6.30;;;;;;;32.03;57.60;100485.84;5085809;27;69893;-39
2022/12/07 08:26:11;;;;;;;7.22;6.43;;;;;;;32.01;57.33;100486.09;5079628;27;65405;-32
2022/12/07 08:28:44;;;;;;;7.25;6.50;;;;;;;32.07;57.24;100495.19;5087976;27;70802;-32
2022/12/07 08:31:18;;;;;;;7.10;6.20;;;;;;;31.74;57.01;100457.78;5064394;27;66333;-32
2022/12/07 08:33:50;;;;;;;6.72;6.25;;;;;;;32.05;57.48;100538.81;5085548;27;70381;-33
2022/12/07 08:36:22;;;;;;;6.30;5.83;;;;;;;32.03;57.56;100538.22;5082977;27;66143;-32
2022/12/07 08:38:53;;;;;;;7.03;6.38;;;;;;;32.05;57.27;100546.94;5085574;27;70638;-32
2022/12/07 08:41:44;;;;;;;8.40;6.80;;;;;;;32.05;57.28;100567.84;5082871;27;66198;-33
2022/12/07 08:44:16;;;;;;;8.40;6.70;;;;;;;31.91;57.74;100567.25;5090260;27;69766;-33
2022/12/07 08:46:56;;;;;;;7.50;6.93;;;;;;;31.17;57.54;100459.13;5080426;27;67086;-33
2022/12/07 08:49:40;;;;;;;7.53;6.80;;;;;;;31.93;57.60;100580.56;5079911;27;70428;-31
2022/12/07 08:52:12;;;;;;;7.25;6.65;;;;;;;32.03;57.82;100581.63;5080115;27;65761;-33
2022/12/07 08:54:43;;;;;;;8.70;6.43;;;;;;;32.03;57.83;100586.22;5091077;27;70567;-31
2022/12/07 08:57:24;;;;;;;;;;;;;;;31.72;58.87;100592.78;5089449;27;66865;-32
2022/12/07 08:59:57;;;;;;;9.88;6.63;;;;;;;31.88;58.26;100578.53;5085481;27;69764;-34
2022/12/07 09:02:30;;;;;;;6.63;6.03;;;;;;;32.01;58.78;100588.34;5096721;27;66299;-31
2022/12/07 09:05:01;;;;;;;7.05;6.43;;;;;;;32.00;58.79;100592.13;5088915;27;69768;-32
2022/12/07 09:07:34;;;;;;;7.90;7.23;;;;;;;31.97;59.03;100598.03;5092764;27;66506;-31
2022/12/07 09:10:06;;;;;;;7.50;6.63;;;;;;;31.95;59.40;100600.97;5083997;27;70172;-32
2022/12/07 09:12:37;;;;;;;6.32;5.82;;;;;;;31.90;59.61;100608.13;5084094;27;65713;-33
2022/12/07 09:15:09;;;;;;;7.20;6.60;;;;;;;31.91;59.52;100610.63;5089683;27;70065;-34
2022/12/07 09:17:41;;;;;;;9.63;5.90;;;;;;;31.90;59.63;100597.28;5080366;27;65678;-32
2022/12/07 09:20:12;;;;;;;6.68;6.18;;;;;;;31.88;59.78;100611.09;5089220;27;69770;-33
2022/12/07 09:22:43;;;;;;;6.70;5.72;;;;;;;31.87;59.67;100608.59;5091245;27;65315;-31
2022/12/07 09:25:15;;;;;;;6.70;6.20;;;;;;;31.77;60.25;100603.75;5084894;27;69673;-33
2022/12/07 09:27:46;;;;;;;6.57;6.13;;;;;;;31.76;60.01;100593.94;5088664;27;66323;-36
2022/12/07 09:30:17;;;;;;;6.00;5.53;;;;;;;31.79;60.42;100609.78;5087757;27;70707;-33
2022/12/07 09:32:48;;;;;;;6.30;5.70;;;;;;;31.78;60.83;100602.69;5086590;27;65417;-32
2022/12/07 09:35:21;;;;;;;6.90;6.40;;;;;;;31.79;60.57;100607.06;5093986;27;70064;-33
2022/12/07 09:37:52;;;;;;;6.50;6.10;;;;;;;31.69;60.41;100594.06;5093012;27;65216;-31
2022/12/07 09:40:24;;;;;;;6.82;6.25;;;;;;;31.76;60.49;100612.94;5084516;27;70497;-32
2022/12/07 09:42:56;;;;;;;6.67;6.13;;;;;;;31.74;60.99;100612.34;5086353;27;65541;-32
2022/12/07 09:45:34;;;;;;;6.85;6.35;;;;;;;31.21;61.65;100531.81;5095060;27;69173;-32
2022/12/07 09:48:10;;;;;;;6.60;6.05;;;;;;;31.72;61.11;100622.59;5093895;27;66627;-33
2022/12/07 09:50:41;;;;;;;6.47;5.88;;;;;;;31.67;60.92;100619.75;5097636;27;70067;-33
2022/12/07 09:53:34;;;;;;;6.13;5.60;;;;;;;31.38;61.51;100581.59;5088012;27;65979;-32
2022/12/07 09:56:05;;;;;;;6.70;6.15;;;;;;;31.67;61.09;100626.00;5083773;27;69327;-32
2022/12/07 09:58:39;;;;;;;5.80;5.30;;;;;;;31.21;61.59;100548.06;5083035;27;66547;-33
2022/12/07 10:01:14;;;;;;;6.43;5.90;;;;;;;31.68;61.29;100632.25;5083983;27;70666;-32
2022/12/07 10:03:59;;;;;;;6.35;5.95;;;;;;;31.66;61.71;100634.38;5084236;27;66117;-36
2022/12/07 10:06:30;;;;;;;6.50;6.10;;;;;;;31.63;61.46;100651.94;5084882;27;69524;-30
2022/12/07 10:09:03;;;;;;;6.22;5.82;;;;;;;31.61;61.93;100654.88;5084955;27;65830;-35
2022/12/07 10:11:34;;;;;;;6.35;5.85;;;;;;;31.57;61.89;100661.00;5088540;27;69106;-36
2022/12/07 10:14:13;;;;;;;6.17;5.80;;;;;;;31.54;62.10;100667.72;5093594;27;66287;-33
2022/12/07 10:16:45;;;;;;;6.05;5.53;;;;;;;31.51;61.73;100656.47;5089848;27;70147;-36
2022/12/07 10:19:21;;;;;;;6.30;5.80;;;;;;;31.56;61.65;100679.13;5086607;27;66378;-35
2022/12/07 10:22:06;;;;;;;7.00;6.40;;;;;;;31.03;64.05;100614.75;5070190;28;70434;-32
2022/12/07 10:24:40;;;;;;;11.70;7.22;;;;;;;31.41;66.54;100681.44;5085738;27;65384;-35
2022/12/07 10:27:22;;;;;;;19.38;8.32;;;;;;;31.27;68.18;100685.34;5072397;27;70089;-34
2022/12/07 10:29:53;;;;;;;9.77;8.53;;;;;;;31.23;68.92;100689.53;5087874;27;66008;-33
2022/12/07 10:32:36;;;;;;;17.45;7.78;;;;;;;31.15;69.23;100688.81;5086713;27;69976;-36
2022/12/07 10:35:26;;;;;;;16.38;8.07;;;;;;;31.06;68.54;100687.44;5088919;27;66688;-33
2022/12/07 10:38:00;;;;;;;13.73;8.73;;;;;;;30.65;69.75;100613.09;5087457;27;69356;-32
2022/12/07 10:40:35;;;;;;;12.10;7.90;;;;;;;31.10;70.58;100691.38;5086843;27;65767;-33
2022/12/07 10:43:14;;;;;;;13.82;8.50;;;;;;;31.09;70.98;100697.00;5088944;27;70388;-31
2022/12/07 10:45:51;;;;;;;11.02;9.00;;;;;;;31.06;71.50;100709.13;5087366;27;65032;-33
2022/12/07 10:49:11;;;;;;;9.40;8.50;;;;;;;31.00;71.17;100714.63;5089325;27;69726;-35
2022/12/07 10:52:11;;;;;;;12.70;9.18;;;;;;;30.98;72.74;100714.00;5084288;27;66420;-34
2022/12/07 10:54:54;;;;;;;17.25;10.13;;;;;;;30.84;72.97;100697.94;5078113;27;70628;-33
2022/12/07 10:57:31;;;;;;;10.93;9.88;;;;;;;31.07;72.51;100724.34;5085888;27;67102;-33
2022/12/07 11:00:28;;;;;;;15.80;9.90;;;;;;;30.60;73.41;100661.69;5095516;27;70767;-32
2022/12/07 11:03:16;;;;;;;15.52;10.02;;;;;;;30.14;73.30;100579.03;5084286;27;66591;-37
2022/12/07 11:05:50;;;;;;;18.10;10.75;;;;;;;31.04;73.76;100730.22;5088324;27;70205;-36
2022/12/07 11:08:55;;;;;;;18.45;10.05;;;;;;;30.94;74.20;100736.13;5083121;27;66219;-35
2022/12/07 11:11:41;;;;;;;29.88;12.43;;;;;;;31.02;74.74;100729.59;5052751;27;69753;-33
2022/12/07 11:14:18;;;;;;;25.90;11.15;;;;;;;31.06;75.09;100736.22;5083224;27;66425;-33
2022/12/07 11:17:08;;;;;;;26.05;11.90;;;;;;;31.05;75.07;100731.84;5089865;27;70028;-33
2022/12/07 11:20:03;;;;;;;18.95;11.32;;;;;;;30.55;75.51;100663.41;5088545;27;66477;-32
2022/12/07 11:22:58;;;;;;;17.88;11.02;;;;;;;30.48;76.01;100655.34;5082839;27;68984;-32
2022/12/07 11:25:49;;;;;;;20.73;10.35;;;;;;;31.07;75.64;100758.75;5083787;27;65715;-36
2022/12/07 11:28:44;;;;;;;19.45;11.02;;;;;;;31.03;75.87;100744.78;5087556;27;69630;-36
2022/12/07 11:31:28;;;;;;;11.60;10.43;;;;;;;31.04;76.35;100745.66;5088480;27;65430;-33
2022/12/07 11:34:42;;;;;;;15.32;10.95;;;;;;;30.94;76.06;100751.56;5086737;27;70075;-33
2022/12/07 11:37:28;;;;;;;13.93;9.90;;;;;;;31.02;76.13;100753.16;5088427;27;65315;-32
2022/12/07 11:40:30;;;;;;;9.27;8.48;;;;;;;30.56;75.17;100673.16;5084989;27;69485;-35
2022/12/07 11:43:27;;;;;;;7.45;6.93;;;;;;;30.81;76.12;100714.59;5083005;27;66205;-32
2022/12/07 11:46:12;;;;;;;7.22;6.68;;;;;;;31.20;73.64;100760.47;5081787;27;67900;-36
2022/12/07 11:49:17;;;;;;;9.48;7.63;;;;;;;31.19;74.00;100783.19;5078781;27;66198;-32
2022/12/07 11:51:53;;;;;;;7.53;6.88;;;;;;;31.07;72.79;100740.59;5081476;27;70335;-35
2022/12/07 11:54:38;;;;;;;7.90;7.20;;;;;;;31.32;72.85;100786.59;5087081;27;66591;-36
2022/12/07 11:57:24;;;;;;;7.35;6.72;;;;;;;31.30;72.85;100771.59;5086994;27;70699;-34
2022/12/07 12:00:03;;;;;;;8.70;7.90;;;;;;;30.90;73.31;100697.03;5084982;27;66411;-32
2022/12/07 12:03:00;;;;;;;8.25;7.55;;;;;;;31.32;74.02;100769.50;5079149;27;70039;-33
2022/12/07 12:05:31;;;;;;;8.50;7.57;;;;;;;31.35;72.42;100758.22;5083322;27;65690;-32
2022/12/07 12:08:23;;;;;;;7.70;7.00;;;;;;;31.32;73.06;100770.34;5082061;27;69231;-34
2022/12/07 12:11:37;;;;;;;8.75;7.30;;;;;;;31.34;73.14;100779.06;5084670;27;65667;-33
2022/12/07 12:14:30;;;;;;;8.57;7.70;;;;;;;31.36;72.91;100776.97;5050287;27;70308;-35
2022/12/07 12:17:46;;;;;;;9.15;8.27;;;;;;;31.36;73.29;100782.41;5085610;27;67326;-34